Terminal Aerodrome Forecast
Issued by NWS

Home | Current Version | Previous Version | Text Only | Print | Product List | Glossary On
Versions: 1 2 3 4 5 6 7 8 9 10 11 12 13
836
FTUS45 KABQ 142323
TAFTCC
TAF
KTCC 142323Z 1500/1524 21010G20KT P6SM SCT200
     FM150200 25012KT P6SM SCT200
     FM150500 33014KT P6SM FEW200
     FM151700 23010KT P6SM FEW200
     FM152000 24014G24KT P6SM FEW200=

USA.gov is the U.S. government's official web portal to all federal, state and local government web resources and services.